Time;durP1;ratioP1;P1;durP2;ratioP2;P2;SDS_P1;SDS_P2;PMS_P1;PMS_P2;Temp;Humidity;BMP_temperature;BMP_pressure;BME280_temperature;BME280_humidity;BME280_pressure;Samples;Min_cycle;Max_cycle;Signal;HPM_P1;HPM_P2
2020/12/22 00:01:16;;;;;;;1.42;0.50;;;20.20;53.90;;;;;;5041305;28;20404;-79
2020/12/22 00:03:42;;;;;;;0.68;0.20;;;20.10;53.90;;;;;;5044751;28;20045;-77
2020/12/22 00:06:11;;;;;;;2.60;0.35;;;20.10;54.20;;;;;;5011252;28;20051;-74
2020/12/22 00:08:37;;;;;;;0.15;0.08;;;20.10;53.70;;;;;;5027756;28;20495;-76
2020/12/22 00:11:03;;;;;;;0.20;0.20;;;20.20;54.20;;;;;;5046008;28;20036;-77
2020/12/22 00:13:28;;;;;;;0.50;0.20;;;20.10;54.50;;;;;;5036144;28;20086;-76
2020/12/22 00:15:54;;;;;;;0.30;0.20;;;20.10;54.30;;;;;;5024947;28;20029;-77
2020/12/22 00:18:19;;;;;;;0.50;0.17;;;20.10;54.30;;;;;;5043528;28;20035;-77
2020/12/22 00:20:45;;;;;;;1.02;0.22;;;20.10;54.00;;;;;;5040960;28;20021;-77
2020/12/22 00:23:10;;;;;;;0.63;0.40;;;20.10;54.30;;;;;;5027038;28;20416;-76
2020/12/22 00:25:46;;;;;;;2.22;0.20;;;20.10;54.00;;;;;;5022599;28;20049;-76
2020/12/22 00:28:12;;;;;;;0.32;0.10;;;20.10;54.00;;;;;;5033795;28;20070;-75
2020/12/22 00:30:38;;;;;;;3.42;0.40;;;20.10;54.20;;;;;;5031071;28;20044;-76
2020/12/22 00:33:04;;;;;;;0.63;0.35;;;20.10;54.40;;;;;;5055458;28;20136;-77
2020/12/22 00:35:30;;;;;;;7.97;0.20;;;20.10;55.10;;;;;;5036825;28;20121;-76
2020/12/22 00:37:55;;;;;;;0.50;0.08;;;20.10;54.40;;;;;;5024304;28;20071;-75
2020/12/22 00:40:24;;;;;;;1.85;0.40;;;20.10;54.70;;;;;;5068411;28;20104;-74
2020/12/22 00:42:50;;;;;;;2.65;0.30;;;20.10;54.50;;;;;;5020852;28;20039;-73
2020/12/22 00:45:16;;;;;;;0.50;0.47;;;20.10;54.40;;;;;;5064151;28;20404;-77
2020/12/22 00:47:41;;;;;;;0.35;0.10;;;20.10;54.70;;;;;;5031326;28;20475;-76
2020/12/22 00:50:07;;;;;;;0.00;0.00;;;20.10;54.40;;;;;;5035514;28;20471;-76
2020/12/22 00:52:32;;;;;;;0.83;0.00;;;20.10;54.30;;;;;;5055803;28;20055;-75
2020/12/22 00:54:58;;;;;;;0.63;0.17;;;20.10;54.50;;;;;;5043955;28;20484;-76
2020/12/22 00:57:27;;;;;;;3.03;0.32;;;20.10;54.60;;;;;;5044619;28;20025;-71
2020/12/22 00:59:52;;;;;;;0.20;0.20;;;20.00;54.70;;;;;;5049167;28;20515;-71
2020/12/22 01:02:18;;;;;;;1.85;0.50;;;20.10;54.50;;;;;;5067998;28;20032;-71
2020/12/22 01:04:43;;;;;;;0.40;0.28;;;20.10;54.70;;;;;;5064666;28;20033;-69
2020/12/22 01:07:09;;;;;;;2.63;0.30;;;20.00;54.40;;;;;;5024790;28;20135;-71
2020/12/22 01:09:35;;;;;;;2.28;0.22;;;20.00;55.00;;;;;;5032895;28;20045;-70
2020/12/22 01:12:00;;;;;;;2.30;0.40;;;20.00;54.70;;;;;;5012518;28;20044;-70
2020/12/22 01:14:26;;;;;;;2.83;0.28;;;20.00;54.90;;;;;;5052318;28;20036;-70
2020/12/22 01:16:55;;;;;;;0.95;0.40;;;20.00;55.10;;;;;;5047249;28;20092;-70
2020/12/22 01:19:21;;;;;;;0.00;0.00;;;20.00;55.00;;;;;;5026574;28;20029;-70
2020/12/22 01:21:53;;;;;;;2.10;0.40;;;20.00;55.20;;;;;;5019516;28;20059;-71
2020/12/22 01:24:20;;;;;;;0.85;0.20;;;20.00;55.30;;;;;;5046408;28;20029;-70
2020/12/22 01:26:47;;;;;;;1.65;0.10;;;20.00;55.30;;;;;;5005919;28;20425;-70
2020/12/22 01:29:13;;;;;;;0.80;0.28;;;19.90;55.40;;;;;;5050099;28;20033;-70
2020/12/22 01:31:38;;;;;;;1.20;0.17;;;19.90;55.70;;;;;;5028597;28;20029;-74
2020/12/22 01:34:04;;;;;;;2.83;0.20;;;19.90;55.60;;;;;;5049111;28;20064;-73
2020/12/22 01:36:31;;;;;;;1.77;0.30;;;19.90;55.80;;;;;;5020262;28;20092;-74
2020/12/22 01:38:56;;;;;;;1.63;0.20;;;19.90;55.80;;;;;;5023363;28;20041;-75
2020/12/22 01:41:22;;;;;;;2.05;0.30;;;19.80;56.00;;;;;;5042634;28;20096;-76
2020/12/22 01:44:08;;;;;;;0.20;0.20;;;19.80;55.70;;;;;;5038377;28;20033;-75
2020/12/22 01:46:37;;;;;;;0.40;0.30;;;19.90;55.80;;;;;;5044543;28;20128;-77
2020/12/22 01:49:04;;;;;;;0.88;0.30;;;19.80;55.60;;;;;;5028737;28;20119;-77
2020/12/22 01:51:29;;;;;;;0.95;0.25;;;19.80;55.60;;;;;;5023887;28;20067;-76
2020/12/22 01:53:55;;;;;;;0.35;0.10;;;19.90;55.70;;;;;;5030014;28;20052;-76
2020/12/22 01:56:22;;;;;;;0.10;0.00;;;19.90;55.70;;;;;;5023126;28;20132;-76
2020/12/22 01:58:48;;;;;;;1.75;0.28;;;19.90;55.80;;;;;;5038234;28;20059;-76
2020/12/22 02:01:13;;;;;;;0.00;0.00;;;19.90;55.70;;;;;;5025817;28;20024;-76
2020/12/22 02:03:39;;;;;;;0.75;0.08;;;19.90;55.60;;;;;;5048663;28;20031;-71
2020/12/22 02:06:04;;;;;;;0.68;0.10;;;19.90;55.90;;;;;;5043545;28;20507;-71
2020/12/22 02:08:30;;;;;;;0.00;0.00;;;19.90;56.00;;;;;;5066590;28;20396;-72
2020/12/22 02:10:56;;;;;;;1.30;0.30;;;19.90;56.10;;;;;;5062187;28;20491;-72
2020/12/22 02:13:21;;;;;;;0.25;0.20;;;19.90;56.10;;;;;;5051799;28;20025;-72
2020/12/22 02:15:47;;;;;;;0.10;0.10;;;19.90;56.30;;;;;;5068141;28;20025;-73
2020/12/22 02:18:12;;;;;;;0.75;0.05;;;19.90;55.90;;;;;;5053104;28;20029;-73
2020/12/22 02:20:39;;;;;;;0.13;0.03;;;19.90;56.00;;;;;;5021988;28;20017;-73
2020/12/22 02:23:05;;;;;;;0.43;0.13;;;19.90;55.70;;;;;;5019244;28;20036;-72
2020/12/22 02:25:30;;;;;;;3.80;0.47;;;19.90;56.40;;;;;;5060473;28;20040;-72
2020/12/22 02:27:56;;;;;;;0.13;0.10;;;19.90;56.20;;;;;;5041070;28;20053;-72
2020/12/22 02:30:21;;;;;;;0.03;0.03;;;19.90;56.20;;;;;;5048731;28;20508;-72
2020/12/22 02:32:47;;;;;;;0.25;0.10;;;19.90;56.10;;;;;;5037736;28;20778;-72
2020/12/22 02:35:12;;;;;;;0.20;0.10;;;19.90;56.30;;;;;;5046026;28;20036;-72
2020/12/22 02:37:38;;;;;;;0.55;0.20;;;19.90;56.20;;;;;;5040417;28;20029;-72
2020/12/22 02:40:04;;;;;;;1.15;0.10;;;19.90;56.00;;;;;;5049341;28;20528;-72
2020/12/22 02:42:29;;;;;;;0.10;0.10;;;19.90;55.80;;;;;;5066884;28;20043;-71
2020/12/22 02:44:55;;;;;;;0.28;0.10;;;19.90;56.10;;;;;;5060072;28;20133;-72
2020/12/22 02:47:32;;;;;;;0.10;0.10;;;19.90;56.10;;;;;;5062040;28;20551;-72
2020/12/22 02:49:58;;;;;;;0.10;0.10;;;19.90;55.90;;;;;;5061954;28;20055;-72
2020/12/22 02:52:23;;;;;;;0.60;0.10;;;19.90;56.00;;;;;;5075438;28;20041;-72
2020/12/22 02:54:49;;;;;;;0.77;0.30;;;19.90;56.30;;;;;;5035022;28;20559;-76
2020/12/22 02:57:14;;;;;;;0.98;0.30;;;19.90;56.20;;;;;;5057987;28;20512;-76
2020/12/22 02:59:40;;;;;;;0.10;0.00;;;19.90;56.20;;;;;;5075636;28;20032;-79
2020/12/22 03:02:06;;;;;;;0.47;0.10;;;19.80;56.70;;;;;;5072472;28;20021;-78
2020/12/22 03:04:31;;;;;;;0.00;0.00;;;19.80;56.70;;;;;;5060429;28;20083;-77
2020/12/22 03:06:57;;;;;;;1.35;0.20;;;19.80;56.50;;;;;;5058822;28;20025;-77
2020/12/22 03:09:22;;;;;;;0.10;0.10;;;19.80;56.80;;;;;;5049807;28;20456;-77
2020/12/22 03:11:48;;;;;;;1.42;0.10;;;19.80;56.60;;;;;;5075279;28;20416;-78
2020/12/22 03:14:13;;;;;;;0.10;0.10;;;19.80;56.50;;;;;;5074036;28;20042;-78
2020/12/22 03:16:39;;;;;;;0.43;0.20;;;19.80;56.50;;;;;;5067027;28;20066;-78
2020/12/22 03:19:04;;;;;;;0.13;0.13;;;19.80;56.70;;;;;;5066020;28;20123;-76
2020/12/22 03:21:30;;;;;;;0.00;0.00;;;19.80;56.80;;;;;;5074543;28;20017;-77
2020/12/22 03:23:55;;;;;;;0.00;0.00;;;19.70;57.00;;;;;;5058222;28;20024;-77
2020/12/22 03:26:21;;;;;;;0.35;0.00;;;19.80;57.10;;;;;;5074280;28;20434;-77
2020/12/22 03:28:46;;;;;;;0.75;0.13;;;19.70;57.30;;;;;;5057096;28;20052;-77
2020/12/22 03:31:12;;;;;;;0.05;0.03;;;19.70;57.40;;;;;;5056902;28;20020;-77
2020/12/22 03:33:37;;;;;;;0.20;0.15;;;19.70;57.60;;;;;;5061295;28;20498;-77
2020/12/22 03:36:03;;;;;;;0.00;0.00;;;19.70;57.60;;;;;;5064513;28;20036;-77
2020/12/22 03:38:28;;;;;;;0.00;0.00;;;19.70;57.80;;;;;;5054675;28;20453;-77
2020/12/22 03:40:54;;;;;;;0.10;0.10;;;19.70;57.60;;;;;;5054946;28;20393;-78
2020/12/22 03:43:20;;;;;;;0.40;0.30;;;19.70;57.50;;;;;;5035103;28;20067;-77
2020/12/22 03:45:45;;;;;;;0.05;0.05;;;19.70;58.10;;;;;;5049402;28;20025;-77
2020/12/22 03:48:11;;;;;;;0.40;0.10;;;19.70;57.30;;;;;;5067559;28;20058;-78
2020/12/22 03:50:36;;;;;;;1.67;0.17;;;19.80;57.50;;;;;;5040317;28;20041;-77
2020/12/22 03:53:02;;;;;;;0.00;0.00;;;19.70;57.20;;;;;;5042300;28;20052;-77
2020/12/22 03:55:28;;;;;;;0.50;0.00;;;19.80;57.40;;;;;;5034758;28;20480;-77
2020/12/22 03:57:53;;;;;;;0.10;0.10;;;19.80;58.00;;;;;;5054511;28;20032;-78
2020/12/22 04:00:19;;;;;;;2.08;0.17;;;19.80;57.20;;;;;;5048489;28;20036;-78
2020/12/22 04:02:44;;;;;;;0.30;0.10;;;19.80;57.20;;;;;;5046011;28;20028;-78
2020/12/22 04:05:10;;;;;;;0.03;0.00;;;19.80;57.40;;;;;;5054409;28;20029;-78
2020/12/22 04:07:36;;;;;;;1.45;0.00;;;19.80;57.60;;;;;;5050878;28;20071;-78
2020/12/22 04:10:03;;;;;;;0.63;0.00;;;19.80;57.50;;;;;;5041538;28;20505;-79
2020/12/22 04:12:29;;;;;;;0.55;0.03;;;19.70;57.60;;;;;;5040735;28;20039;-79
2020/12/22 04:15:19;;;;;;;0.00;0.00;;;19.70;57.70;;;;;;5059371;28;20025;-80
2020/12/22 04:17:45;;;;;;;1.42;0.60;;;19.70;57.80;;;;;;5051447;28;20054;-79
2020/12/22 04:20:10;;;;;;;0.00;0.00;;;19.70;58.70;;;;;;5066146;28;20020;-79
2020/12/22 04:22:36;;;;;;;0.00;0.00;;;19.70;58.00;;;;;;5038948;28;20523;-79
2020/12/22 04:25:02;;;;;;;0.20;0.00;;;19.70;57.80;;;;;;5047179;28;20016;-79
2020/12/22 04:27:27;;;;;;;0.15;0.00;;;19.70;57.80;;;;;;5031606;28;20033;-79
2020/12/22 04:29:53;;;;;;;0.10;0.10;;;19.70;57.90;;;;;;5045812;28;20450;-79
2020/12/22 04:32:27;;;;;;;0.20;0.10;;;19.70;58.00;;;;;;5056160;28;20032;-78
2020/12/22 04:34:59;;;;;;;0.08;0.08;;;19.70;58.20;;;;;;5015585;28;20036;-80
2020/12/22 04:37:31;;;;;;;0.75;0.10;;;19.70;57.80;;;;;;5046500;28;20033;-79
2020/12/22 04:39:56;;;;;;;0.10;0.10;;;19.70;57.80;;;;;;5052190;28;20072;-79
2020/12/22 04:42:22;;;;;;;0.20;0.00;;;19.70;58.30;;;;;;5052473;28;20469;-80
2020/12/22 04:44:49;;;;;;;0.10;0.08;;;19.70;57.60;;;;;;5036439;28;20378;-80
2020/12/22 04:47:15;;;;;;;4.68;0.20;;;19.70;58.00;;;;;;5050261;28;20048;-79
2020/12/22 04:49:42;;;;;;;0.20;0.10;;;19.70;58.10;;;;;;5041658;28;22136;-78
2020/12/22 04:52:07;;;;;;;0.10;0.00;;;19.70;58.00;;;;;;5044365;28;20099;-78
2020/12/22 04:54:33;;;;;;;0.00;0.00;;;19.70;58.00;;;;;;5053640;28;20428;-79
2020/12/22 04:56:59;;;;;;;0.00;0.00;;;19.70;58.10;;;;;;5062412;28;20028;-79
2020/12/22 04:59:25;;;;;;;0.43;0.00;;;19.70;58.10;;;;;;5060569;28;20511;-79
2020/12/22 05:01:50;;;;;;;0.10;0.08;;;19.60;58.20;;;;;;5030602;28;20056;-71
2020/12/22 05:04:16;;;;;;;0.08;0.08;;;19.60;58.10;;;;;;5020501;28;20044;-71
2020/12/22 05:06:41;;;;;;;0.05;0.05;;;19.70;58.20;;;;;;5054367;28;20500;-72
2020/12/22 05:09:07;;;;;;;0.17;0.00;;;19.70;57.80;;;;;;5051507;28;20445;-72
2020/12/22 05:11:36;;;;;;;0.10;0.10;;;19.70;57.90;;;;;;5053478;28;20151;-72
2020/12/22 05:14:03;;;;;;;0.10;0.10;;;19.70;58.00;;;;;;5050297;28;20047;-72
2020/12/22 05:16:29;;;;;;;0.35;0.10;;;19.70;57.90;;;;;;5063143;28;20104;-80
2020/12/22 05:18:55;;;;;;;0.10;0.10;;;19.70;58.30;;;;;;5060844;28;20139;-79
2020/12/22 05:21:21;;;;;;;0.10;0.10;;;19.70;57.60;;;;;;5071299;28;20033;-79
2020/12/22 05:23:50;;;;;;;0.25;0.25;;;19.80;57.60;;;;;;5026371;28;20040;-78
2020/12/22 05:26:22;;;;;;;0.10;0.00;;;19.80;57.40;;;;;;5032070;28;20099;-78
2020/12/22 05:28:48;;;;;;;0.20;0.05;;;19.80;57.40;;;;;;5058683;28;20025;-79
2020/12/22 05:31:14;;;;;;;0.30;0.15;;;19.80;57.30;;;;;;5039277;28;20027;-76
2020/12/22 05:33:43;;;;;;;0.30;0.20;;;19.80;57.60;;;;;;5041944;28;20041;-76
2020/12/22 05:36:09;;;;;;;0.10;0.10;;;19.80;57.50;;;;;;5041558;28;20088;-76
2020/12/22 05:38:35;;;;;;;0.20;0.17;;;19.80;57.40;;;;;;5019260;28;20049;-76
2020/12/22 05:41:02;;;;;;;0.80;0.20;;;19.90;57.60;;;;;;5033293;28;20127;-76
2020/12/22 05:43:27;;;;;;;0.10;0.10;;;19.90;57.50;;;;;;5033788;28;20104;-77
2020/12/22 05:49:15;;;;;;;0.00;0.00;;;19.90;57.20;;;;;;5051450;28;20155;-77
2020/12/22 05:51:44;;;;;;;0.20;0.10;;;19.90;57.00;;;;;;5024213;28;20063;-76
2020/12/22 05:54:13;;;;;;;0.22;0.20;;;19.90;57.10;;;;;;5035669;28;20020;-77
2020/12/22 05:56:38;;;;;;;0.10;0.10;;;20.00;57.20;;;;;;5039552;28;20032;-77
2020/12/22 05:59:16;;;;;;;1.13;0.20;;;20.00;57.20;;;;;;5056574;28;20030;-77
2020/12/22 06:01:41;;;;;;;0.25;0.10;;;20.00;57.10;;;;;;5015922;28;20025;-76
2020/12/22 06:04:07;;;;;;;0.20;0.10;;;20.00;56.60;;;;;;5043128;28;20511;-77
2020/12/22 06:06:33;;;;;;;0.00;0.00;;;20.10;56.60;;;;;;5036721;28;20454;-77
2020/12/22 06:08:58;;;;;;;0.30;0.20;;;20.10;56.40;;;;;;5035390;28;20045;-77
2020/12/22 06:11:24;;;;;;;0.65;0.30;;;20.10;56.50;;;;;;5036085;28;20033;-76
2020/12/22 06:13:50;;;;;;;0.10;0.10;;;20.10;56.50;;;;;;5047378;28;20415;-76
2020/12/22 06:16:17;;;;;;;0.00;0.00;;;20.10;56.40;;;;;;5050577;28;20584;-76
2020/12/22 06:18:44;;;;;;;0.28;0.10;;;20.10;56.30;;;;;;5045966;28;20013;-76
2020/12/22 06:21:11;;;;;;;0.63;0.13;;;20.10;56.50;;;;;;5039428;28;20051;-76
2020/12/22 06:23:37;;;;;;;0.43;0.20;;;20.10;56.20;;;;;;5056208;28;20031;-76
2020/12/22 06:26:06;;;;;;;2.83;0.40;;;20.10;56.30;;;;;;5023759;28;20024;-77
2020/12/22 06:28:31;;;;;;;2.60;0.13;;;20.10;56.70;;;;;;5055954;28;20504;-78
2020/12/22 06:30:57;;;;;;;0.20;0.20;;;20.00;56.30;;;;;;5038140;28;20063;-79
2020/12/22 06:33:24;;;;;;;0.30;0.30;;;20.00;56.40;;;;;;5023107;28;20037;-79
2020/12/22 06:36:03;;;;;;;0.22;0.22;;;20.10;56.20;;;;;;5036623;28;20068;-79
2020/12/22 06:38:43;;;;;;;0.65;0.40;;;20.10;56.50;;;;;;5024885;28;20127;-79
2020/12/22 06:41:09;;;;;;;1.52;0.50;;;20.00;56.30;;;;;;5055305;28;20051;-79
2020/12/22 06:43:40;;;;;;;0.60;0.45;;;20.00;56.60;;;;;;5022959;28;20045;-79
2020/12/22 06:46:09;;;;;;;5.60;0.63;;;20.00;56.60;;;;;;5022518;28;20041;-78
2020/12/22 06:48:45;;;;;;;1.33;0.57;;;20.00;56.50;;;;;;5055130;28;20496;-79
2020/12/22 06:51:23;;;;;;;;;;;20.00;56.40;;;;;;5022663;28;20036;-78
2020/12/22 06:53:49;;;;;;;1.17;0.43;;;20.00;56.30;;;;;;5042267;28;19912;-78
2020/12/22 06:56:14;;;;;;;3.08;0.28;;;20.00;56.20;;;;;;5055933;28;20388;-78
2020/12/22 06:58:41;;;;;;;0.52;0.32;;;20.10;55.90;;;;;;5038175;28;20033;-78
2020/12/22 07:01:28;;;;;;;0.30;0.22;;;20.10;56.00;;;;;;5055476;28;20082;-77
2020/12/22 07:04:09;;;;;;;0.77;0.30;;;20.10;56.00;;;;;;5054050;28;20074;-78
2020/12/22 07:06:47;;;;;;;0.85;0.47;;;20.10;55.80;;;;;;5017214;28;20017;-78
2020/12/22 07:09:20;;;;;;;0.30;0.30;;;20.10;55.90;;;;;;5063953;28;20028;-77
2020/12/22 07:11:47;;;;;;;0.28;0.20;;;20.20;55.90;;;;;;5041233;28;20509;-77
2020/12/22 07:14:17;;;;;;;0.75;0.38;;;20.30;55.80;;;;;;5032390;28;20035;-77
2020/12/22 07:16:53;;;;;;;0.38;0.30;;;20.20;55.90;;;;;;5053275;28;20021;-78
2020/12/22 07:19:29;;;;;;;0.40;0.30;;;20.20;55.70;;;;;;5057938;28;20032;-77
2020/12/22 07:21:58;;;;;;;2.03;0.40;;;20.20;56.00;;;;;;5061949;28;20079;-77
2020/12/22 07:24:31;;;;;;;0.22;0.10;;;20.20;56.00;;;;;;5026871;28;20412;-77
2020/12/22 07:26:57;;;;;;;0.70;0.30;;;20.20;55.80;;;;;;5033721;28;20017;-76
2020/12/22 07:29:22;;;;;;;0.22;0.22;;;20.20;56.00;;;;;;5049895;28;20128;-76
2020/12/22 07:31:54;;;;;;;0.30;0.30;;;20.20;56.00;;;;;;5014885;28;20431;-78
2020/12/22 07:34:19;;;;;;;1.52;0.40;;;20.20;55.90;;;;;;5037139;28;20033;-76
2020/12/22 07:36:46;;;;;;;0.30;0.30;;;20.20;55.60;;;;;;5066032;28;20035;-76
2020/12/22 07:39:21;;;;;;;0.13;0.10;;;20.30;55.60;;;;;;5032876;28;20105;-76
2020/12/22 07:41:47;;;;;;;0.77;0.20;;;20.30;55.60;;;;;;5043026;28;20103;-76
2020/12/22 07:44:15;;;;;;;0.70;0.20;;;20.40;55.40;;;;;;5053725;28;20119;-76
2020/12/22 07:46:42;;;;;;;0.35;0.30;;;20.40;55.30;;;;;;5045384;28;20024;-76
2020/12/22 07:49:08;;;;;;;0.30;0.20;;;20.40;55.40;;;;;;5042477;28;20506;-76
2020/12/22 07:51:34;;;;;;;0.50;0.40;;;20.40;55.20;;;;;;5029907;28;20032;-75
2020/12/22 07:54:04;;;;;;;0.63;0.43;;;20.40;55.40;;;;;;5072583;28;20380;-75
2020/12/22 07:56:43;;;;;;;0.77;0.40;;;20.40;55.50;;;;;;5041771;28;20044;-76
2020/12/22 07:59:13;;;;;;;6.22;0.60;;;20.40;55.50;;;;;;5036717;28;20040;-75
2020/12/22 08:01:42;;;;;;;0.68;0.22;;;20.40;55.40;;;;;;5035511;28;20021;-75
2020/12/22 08:04:24;;;;;;;3.72;0.45;;;20.40;55.40;;;;;;5058989;28;20029;-75
2020/12/22 08:07:02;;;;;;;0.90;0.40;;;20.40;55.20;;;;;;5055248;28;20075;-76
2020/12/22 08:09:28;;;;;;;0.30;0.20;;;20.40;55.30;;;;;;5056407;28;20063;-76
2020/12/22 08:11:55;;;;;;;0.80;0.30;;;20.40;55.10;;;;;;5065202;28;20025;-76
2020/12/22 08:14:22;;;;;;;0.40;0.40;;;20.40;55.10;;;;;;5039622;28;20488;-76
2020/12/22 08:16:48;;;;;;;0.52;0.30;;;20.40;55.10;;;;;;5048718;28;20071;-76
2020/12/22 08:19:13;;;;;;;0.75;0.20;;;20.40;55.20;;;;;;5024333;28;20025;-76
2020/12/22 08:21:39;;;;;;;0.63;0.40;;;20.40;55.10;;;;;;5010353;28;20389;-75
2020/12/22 08:24:04;;;;;;;0.22;0.20;;;20.40;55.30;;;;;;5040812;28;20116;-75
2020/12/22 08:26:30;;;;;;;0.77;0.25;;;20.40;55.20;;;;;;5045680;28;20034;-76
2020/12/22 08:28:55;;;;;;;7.68;0.20;;;20.30;55.10;;;;;;5048375;28;20044;-76
2020/12/22 08:31:23;;;;;;;0.20;0.20;;;20.40;55.10;;;;;;5038233;28;20408;-75
2020/12/22 08:33:53;;;;;;;0.82;0.40;;;20.40;55.10;;;;;;5032936;28;20124;-77
2020/12/22 08:36:20;;;;;;;0.35;0.20;;;20.40;54.90;;;;;;5050622;28;20025;-75
2020/12/22 08:39:19;;;;;;;0.80;0.40;;;20.40;54.90;;;;;;5065974;28;20040;-75
2020/12/22 08:41:57;;;;;;;1.98;0.30;;;20.40;55.00;;;;;;4999710;28;20029;-76
2020/12/22 08:44:24;;;;;;;0.28;0.10;;;20.40;54.80;;;;;;5025225;28;20078;-76
2020/12/22 08:47:04;;;;;;;0.68;0.40;;;20.50;54.80;;;;;;5030054;28;20033;-76
2020/12/22 08:49:31;;;;;;;0.17;0.17;;;20.50;54.70;;;;;;5016364;28;20029;-76
2020/12/22 08:52:11;;;;;;;1.55;0.30;;;20.50;54.60;;;;;;5015284;28;20489;-76
2020/12/22 08:54:39;;;;;;;0.10;0.10;;;20.50;54.80;;;;;;5017727;28;20119;-76
2020/12/22 08:57:15;;;;;;;2.97;0.22;;;20.50;54.70;;;;;;5031061;28;20127;-76
2020/12/22 08:59:41;;;;;;;;;;;20.50;54.70;;;;;;5025445;28;20028;-73
2020/12/22 09:02:06;;;;;;;0.23;0.10;;;20.50;54.60;;;;;;5055849;28;19909;-73
2020/12/22 09:04:32;;;;;;;0.30;0.03;;;20.60;54.50;;;;;;5024305;28;20278;-72
2020/12/22 09:06:58;;;;;;;5.88;0.20;;;20.60;54.30;;;;;;5038000;28;20072;-70
2020/12/22 09:09:27;;;;;;;0.10;0.10;;;20.70;54.20;;;;;;5020037;28;20103;-69
2020/12/22 09:12:02;;;;;;;0.20;0.17;;;20.70;54.10;;;;;;5049859;28;20035;-69
2020/12/22 09:14:28;;;;;;;0.38;0.20;;;20.70;54.00;;;;;;5051264;28;20021;-69
2020/12/22 09:16:55;;;;;;;0.00;0.00;;;20.80;54.10;;;;;;5001908;28;20036;-71
2020/12/22 09:19:39;;;;;;;0.00;0.00;;;20.70;53.90;;;;;;5022247;28;20028;-70
2020/12/22 09:22:05;;;;;;;0.10;0.10;;;20.80;53.90;;;;;;5035806;28;20084;-71
2020/12/22 09:24:33;;;;;;;0.77;0.20;;;20.80;53.80;;;;;;5038020;28;20098;-70
2020/12/22 09:27:00;;;;;;;0.28;0.15;;;20.80;53.70;;;;;;5034396;28;20040;-70
2020/12/22 09:29:26;;;;;;;0.10;0.10;;;20.80;53.60;;;;;;5036620;28;20484;-69
2020/12/22 09:31:53;;;;;;;1.75;0.15;;;20.80;53.50;;;;;;5037865;28;20025;-71
2020/12/22 09:34:19;;;;;;;0.55;0.20;;;20.90;53.60;;;;;;5017768;28;20049;-71
2020/12/22 09:36:52;;;;;;;0.03;0.03;;;20.80;53.50;;;;;;5035692;28;20047;-70
2020/12/22 09:39:17;;;;;;;1.85;0.10;;;20.80;53.50;;;;;;5016754;28;20560;-71
2020/12/22 09:41:44;;;;;;;0.17;0.13;;;20.80;53.50;;;;;;5032741;28;20098;-70
2020/12/22 09:44:09;;;;;;;1.00;0.20;;;20.80;53.50;;;;;;5036105;28;20037;-70
2020/12/22 09:46:35;;;;;;;0.35;0.10;;;20.80;53.50;;;;;;5054591;28;20032;-71
2020/12/22 09:49:24;;;;;;;0.55;0.20;;;20.80;53.50;;;;;;5051996;28;20059;-75
2020/12/22 09:51:50;;;;;;;0.10;0.10;;;20.80;53.60;;;;;;4952808;28;20047;-76
2020/12/22 09:54:15;;;;;;;1.35;0.20;;;20.80;53.50;;;;;;4945203;29;20467;-75
2020/12/22 09:57:12;;;;;;;0.17;0.00;;;20.80;53.60;;;;;;4944437;28;20043;-75
2020/12/22 09:59:37;;;;;;;0.10;0.10;;;20.80;53.60;;;;;;4956269;28;20114;-75
2020/12/22 10:02:21;;;;;;;0.20;0.10;;;20.80;53.60;;;;;;4952475;28;20122;-75
2020/12/22 10:04:46;;;;;;;0.52;0.30;;;20.80;53.70;;;;;;4940317;29;20039;-75
2020/12/22 10:07:12;;;;;;;0.10;0.10;;;20.70;53.60;;;;;;4953470;28;20050;-75
2020/12/22 10:09:37;;;;;;;0.15;0.15;;;20.80;53.60;;;;;;4961295;28;20039;-75
2020/12/22 10:12:03;;;;;;;0.20;0.20;;;20.70;53.60;;;;;;4957307;28;20035;-75
2020/12/22 10:14:29;;;;;;;0.38;0.20;;;20.70;53.70;;;;;;4965486;28;20537;-76
2020/12/22 10:20:16;;;;;;;0.20;0.20;;;20.70;54.00;;;;;;4952399;29;20478;-75
2020/12/22 10:22:42;;;;;;;0.47;0.28;;;20.70;54.10;;;;;;4956057;28;20043;-75
2020/12/22 10:25:07;;;;;;;0.32;0.22;;;20.70;54.00;;;;;;4966271;28;20066;-75
2020/12/22 10:27:33;;;;;;;0.20;0.20;;;20.70;53.90;;;;;;4956457;28;20082;-76
2020/12/22 10:29:58;;;;;;;0.20;0.20;;;20.70;53.90;;;;;;5035773;28;20109;-76
2020/12/22 10:35:46;;;;;;;0.57;0.20;;;20.80;53.80;;;;;;5044542;28;20037;-75
2020/12/22 10:38:12;;;;;;;0.20;0.20;;;20.80;53.70;;;;;;5049095;28;20041;-75
2020/12/22 10:40:38;;;;;;;0.20;0.20;;;20.80;53.70;;;;;;5053179;28;20110;-74
2020/12/22 10:43:03;;;;;;;0.10;0.10;;;20.80;53.80;;;;;;5024295;28;20052;-75
2020/12/22 10:45:29;;;;;;;0.63;0.20;;;20.80;53.70;;;;;;5035634;28;20481;-76
2020/12/22 10:47:55;;;;;;;2.75;0.30;;;20.80;53.70;;;;;;5042403;28;22055;-75
2020/12/22 10:50:21;;;;;;;0.20;0.20;;;20.80;53.70;;;;;;5066462;28;20024;-75
2020/12/22 10:56:13;;;;;;;0.25;0.20;;;20.90;53.60;;;;;;5070051;28;20079;-75
2020/12/22 10:58:39;;;;;;;0.93;0.38;;;20.90;53.40;;;;;;5024316;28;20016;-74
2020/12/22 11:01:04;;;;;;;0.40;0.28;;;21.00;53.40;;;;;;5062609;28;20542;-75
2020/12/22 11:03:30;;;;;;;1.98;0.60;;;21.00;53.40;;;;;;5059198;28;20036;-75
2020/12/22 11:08:43;;;;;;;3.80;0.40;;;21.00;53.30;;;;;;5037832;28;20027;-76
2020/12/22 11:14:31;;;;;;;0.55;0.30;;;21.00;53.40;;;;;;5057296;28;20028;-75
2020/12/22 11:16:56;;;;;;;0.30;0.10;;;20.90;53.40;;;;;;5045858;28;20407;-76
2020/12/22 11:19:22;;;;;;;0.57;0.20;;;20.90;54.20;;;;;;5049471;28;20035;-76
2020/12/22 11:21:49;;;;;;;1.20;0.50;;;20.90;53.60;;;;;;5034821;28;20065;-76
2020/12/22 11:24:15;;;;;;;1.00;0.40;;;20.90;53.70;;;;;;5057461;28;20563;-71
2020/12/22 11:26:41;;;;;;;0.63;0.20;;;20.90;53.60;;;;;;5020962;28;20162;-72
2020/12/22 11:29:07;;;;;;;0.28;0.10;;;20.80;53.70;;;;;;5051640;28;20110;-72
2020/12/22 11:31:32;;;;;;;0.22;0.22;;;20.90;53.70;;;;;;5029170;28;20071;-72
2020/12/22 11:33:58;;;;;;;0.55;0.10;;;20.80;53.60;;;;;;5051376;28;20036;-72
2020/12/22 11:36:23;;;;;;;0.10;0.10;;;20.80;53.70;;;;;;5025182;28;20025;-71
2020/12/22 11:38:49;;;;;;;0.60;0.22;;;20.80;53.60;;;;;;5056383;28;20056;-71
2020/12/22 11:41:22;;;;;;;0.22;0.08;;;20.80;53.60;;;;;;5047874;28;20511;-72
2020/12/22 11:43:47;;;;;;;0.73;0.30;;;20.90;53.70;;;;;;5051900;28;20060;-72
2020/12/22 11:46:13;;;;;;;0.30;0.10;;;20.80;53.60;;;;;;5041173;28;20957;-72
2020/12/22 11:48:38;;;;;;;1.08;0.13;;;20.80;53.60;;;;;;5049280;28;20528;-72
2020/12/22 11:51:04;;;;;;;0.10;0.10;;;20.80;53.70;;;;;;5045298;28;20115;-72
2020/12/22 11:53:30;;;;;;;0.77;0.35;;;20.80;53.70;;;;;;4999116;28;20033;-72
2020/12/22 11:55:56;;;;;;;0.47;0.25;;;20.80;53.80;;;;;;5052449;28;20038;-72
2020/12/22 11:58:21;;;;;;;0.73;0.50;;;20.80;53.80;;;;;;5050086;28;20430;-72
2020/12/22 12:00:47;;;;;;;0.40;0.30;;;20.80;53.70;;;;;;5050481;28;20040;-70
2020/12/22 12:03:13;;;;;;;0.08;0.00;;;20.80;53.90;;;;;;5051903;28;20017;-72
2020/12/22 12:05:39;;;;;;;0.15;0.15;;;20.80;53.70;;;;;;5030231;28;20033;-71
2020/12/22 12:08:05;;;;;;;4.65;0.15;;;20.80;53.70;;;;;;5018117;28;20204;-71
2020/12/22 12:10:30;;;;;;;0.50;0.10;;;20.80;53.60;;;;;;5042183;28;20101;-71
2020/12/22 12:12:56;;;;;;;0.10;0.10;;;20.80;53.60;;;;;;5052335;28;20025;-71
2020/12/22 12:15:22;;;;;;;0.88;0.20;;;20.80;53.60;;;;;;5058692;28;20024;-71
2020/12/22 12:17:47;;;;;;;0.20;0.20;;;20.80;53.60;;;;;;5039189;28;20489;-71
2020/12/22 12:20:13;;;;;;;2.08;0.20;;;20.80;53.60;;;;;;5027437;28;20041;-72
2020/12/22 12:22:38;;;;;;;0.45;0.32;;;20.80;53.50;;;;;;5050698;28;20048;-72
2020/12/22 12:25:04;;;;;;;0.60;0.15;;;20.80;53.60;;;;;;5023917;28;20127;-72
2020/12/22 12:27:29;;;;;;;0.20;0.20;;;20.80;53.60;;;;;;5038866;28;20045;-72
2020/12/22 12:29:55;;;;;;;0.13;0.13;;;20.80;53.60;;;;;;5054760;28;20036;-71
2020/12/22 12:32:29;;;;;;;0.20;0.20;;;20.80;53.50;;;;;;5021733;28;20062;-71
2020/12/22 12:34:57;;;;;;;1.08;0.57;;;20.80;53.50;;;;;;5044159;28;20024;-71
2020/12/22 12:37:23;;;;;;;0.55;0.45;;;20.80;53.50;;;;;;5029800;28;20499;-71
2020/12/22 12:39:49;;;;;;;0.90;0.28;;;20.80;53.60;;;;;;5049754;28;20094;-71
2020/12/22 12:42:15;;;;;;;0.45;0.32;;;20.80;53.60;;;;;;5048601;28;20496;-71
2020/12/22 12:44:41;;;;;;;0.80;0.20;;;20.80;54.10;;;;;;5054055;28;20044;-71
2020/12/22 12:47:06;;;;;;;0.30;0.20;;;20.80;53.50;;;;;;5033614;28;20043;-71
2020/12/22 12:49:32;;;;;;;0.60;0.10;;;20.80;53.60;;;;;;5047866;28;20032;-72
2020/12/22 12:52:03;;;;;;;0.10;0.10;;;20.80;53.60;;;;;;5037001;28;20391;-72
2020/12/22 12:54:29;;;;;;;0.80;0.30;;;20.80;53.70;;;;;;5051642;28;20035;-71
2020/12/22 12:56:55;;;;;;;0.38;0.17;;;20.80;53.60;;;;;;5030291;28;20112;-71
2020/12/22 12:59:20;;;;;;;0.28;0.28;;;20.80;53.70;;;;;;5050237;28;20128;-72
2020/12/22 13:01:46;;;;;;;0.30;0.22;;;20.80;53.70;;;;;;5048729;28;20553;-72
2020/12/22 13:04:11;;;;;;;0.38;0.30;;;20.70;53.60;;;;;;5050600;28;20403;-72
2020/12/22 13:06:37;;;;;;;0.20;0.20;;;20.70;53.60;;;;;;5048508;28;20028;-72
2020/12/22 13:09:03;;;;;;;0.10;0.10;;;20.70;54.20;;;;;;5053699;28;20087;-72